Time;durP1;ratioP1;P1;durP2;ratioP2;P2;SDS_P1;SDS_P2;PMS_P1;PMS_P2;Temp;Humidity;BMP_temperature;BMP_pressure;BME280_temperature;BME280_humidity;BME280_pressure;Samples;Min_cycle;Max_cycle;Signal;HPM_P1;HPM_P2
2021/05/15 00:01:38;;;;;;;1999.90;999.90;;;9.00;99.90;;;;;;4901764;29;20186;-94
2021/05/15 00:04:05;;;;;;;1999.90;999.90;;;9.00;99.90;;;;;;4902191;29;20194;-92
2021/05/15 00:06:34;;;;;;;1999.90;999.90;;;9.00;99.90;;;;;;4902120;29;20192;-92
2021/05/15 00:09:04;;;;;;;1999.90;999.90;;;9.00;99.90;;;;;;4902353;29;20186;-92
2021/05/15 00:11:33;;;;;;;1999.90;999.90;;;9.00;99.90;;;;;;4901959;29;20221;-91
2021/05/15 00:13:59;;;;;;;1999.90;999.90;;;9.00;99.90;;;;;;4901792;29;20181;-91
2021/05/15 00:16:28;;;;;;;1999.90;999.90;;;9.00;99.90;;;;;;4902129;29;20216;-93
2021/05/15 00:18:57;;;;;;;1999.90;999.90;;;9.00;99.90;;;;;;4901758;29;20221;-91
2021/05/15 00:21:31;;;;;;;1999.90;999.90;;;9.00;99.90;;;;;;4901835;29;20186;-92
2021/05/15 00:23:57;;;;;;;1999.90;999.90;;;9.00;99.90;;;;;;4901468;29;20189;-92
2021/05/15 00:26:28;;;;;;;1999.90;999.90;;;8.90;99.90;;;;;;4901543;29;20276;-92
2021/05/15 00:28:57;;;;;;;1999.90;999.90;;;9.00;99.90;;;;;;4901807;29;20182;-93
2021/05/15 00:31:38;;;;;;;1999.90;999.90;;;9.00;99.90;;;;;;4901757;29;20705;-93
2021/05/15 00:34:04;;;;;;;1999.90;999.90;;;9.00;99.90;;;;;;4901295;29;20217;-92
2021/05/15 00:36:39;;;;;;;1999.90;999.90;;;9.00;99.90;;;;;;4902977;29;20198;-91
2021/05/15 00:39:13;;;;;;;1999.90;999.90;;;8.90;99.90;;;;;;4903587;29;20661;-92
2021/05/15 00:41:47;;;;;;;1999.90;999.90;;;8.90;99.90;;;;;;4904129;29;20318;-94
2021/05/15 00:44:31;;;;;;;1999.90;999.90;;;8.90;99.90;;;;;;4907745;29;20182;-92
2021/05/15 00:47:21;;;;;;;1999.90;999.90;;;8.90;99.90;;;;;;4906065;29;20253;-93
2021/05/15 00:50:07;;;;;;;1999.90;999.90;;;8.90;99.90;;;;;;4934074;29;20196;-92
2021/05/15 00:52:40;;;;;;;1999.90;999.90;;;9.00;99.90;;;;;;4902949;29;20262;-92
2021/05/15 00:55:16;;;;;;;1999.90;999.90;;;9.00;99.90;;;;;;4902926;29;20194;-92
2021/05/15 00:57:54;;;;;;;;;;;;;;;;;;;;;
2021/05/15 01:00:23;;;;;;;1999.90;999.90;;;9.00;99.90;;;;;;4918660;29;20170;-92
2021/05/15 01:02:52;;;;;;;1999.90;999.90;;;9.00;99.90;;;;;;4901782;29;20174;-92
2021/05/15 01:05:18;;;;;;;1999.90;999.90;;;9.00;99.90;;;;;;4902207;29;20234;-93
2021/05/15 01:08:06;;;;;;;1999.90;999.90;;;9.00;99.90;;;;;;4901981;29;20197;-93
2021/05/15 01:10:52;;;;;;;1999.90;999.90;;;9.00;99.90;;;;;;4901955;29;20246;-92
2021/05/15 01:13:23;;;;;;;1999.90;999.90;;;9.00;99.90;;;;;;4901651;29;20201;-91
2021/05/15 01:16:09;;;;;;;1999.90;999.90;;;9.00;99.90;;;;;;4902359;29;20204;-92
2021/05/15 01:18:48;;;;;;;;;;;;;;;;;;;;;
2021/05/15 01:21:14;;;;;;;1999.90;999.90;;;9.00;99.90;;;;;;4919016;29;20174;-91
2021/05/15 01:23:47;;;;;;;1999.90;999.90;;;9.00;99.90;;;;;;4901882;29;20281;-93
2021/05/15 01:26:25;;;;;;;1999.90;999.90;;;9.00;99.90;;;;;;4901611;29;20277;-92
2021/05/15 01:28:53;;;;;;;1999.90;999.90;;;9.00;99.90;;;;;;4901918;29;20186;-93
2021/05/15 01:31:30;;;;;;;1999.90;999.90;;;9.00;99.90;;;;;;4901234;29;20652;-92
2021/05/15 01:33:57;;;;;;;1999.90;999.90;;;9.00;99.90;;;;;;4901785;29;20190;-91
2021/05/15 01:36:26;;;;;;;1999.90;999.90;;;9.00;99.90;;;;;;4901188;29;20198;-93
2021/05/15 01:38:52;;;;;;;1999.90;999.90;;;9.00;99.90;;;;;;4901265;29;20293;-92
2021/05/15 01:41:19;;;;;;;1999.90;999.90;;;9.10;99.90;;;;;;4901482;29;20630;-91
2021/05/15 01:43:48;;;;;;;1999.90;999.90;;;9.10;99.90;;;;;;4901169;29;20245;-91
2021/05/15 01:46:15;;;;;;;1999.90;999.90;;;9.10;99.90;;;;;;4901658;29;20221;-91
2021/05/15 01:48:50;;;;;;;1999.90;999.90;;;9.10;99.90;;;;;;4904814;29;20296;-91
2021/05/15 01:51:21;;;;;;;1999.90;999.90;;;9.10;99.90;;;;;;4905356;29;20268;-93
2021/05/15 01:53:49;;;;;;;1999.90;999.90;;;9.10;99.90;;;;;;4904730;29;20199;-92
2021/05/15 01:56:27;;;;;;;1999.90;999.90;;;9.10;99.90;;;;;;4904921;29;20630;-93
2021/05/15 01:59:04;;;;;;;1999.90;999.90;;;9.10;99.90;;;;;;4921470;29;20301;-92
2021/05/15 02:01:29;;;;;;;1999.90;999.90;;;9.10;99.90;;;;;;4904682;29;20185;-92
2021/05/15 02:03:58;;;;;;;1999.90;999.90;;;9.00;99.90;;;;;;4904569;29;20552;-91
2021/05/15 02:06:33;;;;;;;1999.90;999.90;;;9.00;99.90;;;;;;4904615;29;20182;-92
2021/05/15 02:09:04;;;;;;;1999.90;999.90;;;9.00;99.90;;;;;;4904701;29;20220;-92
2021/05/15 02:11:33;;;;;;;1999.90;999.90;;;9.00;99.90;;;;;;4904260;29;20194;-91
2021/05/15 02:13:59;;;;;;;1999.90;999.90;;;9.00;99.90;;;;;;4904251;29;20182;-92
2021/05/15 02:16:27;;;;;;;1999.90;999.90;;;9.00;99.90;;;;;;4904424;29;20325;-92
2021/05/15 02:19:44;;;;;;;1999.90;999.90;;;9.00;99.90;;;;;;4904390;29;20229;-92
2021/05/15 02:22:14;;;;;;;1999.90;999.90;;;8.90;99.90;;;;;;4920854;29;20182;-92
2021/05/15 02:24:40;;;;;;;1999.90;999.90;;;8.90;99.90;;;;;;4904223;29;20178;-92
2021/05/15 02:27:06;;;;;;;1999.90;999.90;;;8.80;99.90;;;;;;4903934;29;20201;-92
2021/05/15 02:29:35;;;;;;;1999.90;999.90;;;8.80;99.90;;;;;;4904327;29;20186;-92
2021/05/15 02:32:08;;;;;;;1999.90;999.90;;;8.80;99.90;;;;;;4912795;29;20208;-91
2021/05/15 02:34:44;;;;;;;1999.90;999.90;;;8.70;99.90;;;;;;4904285;29;20182;-92
2021/05/15 02:37:09;;;;;;;1999.90;999.90;;;8.80;99.90;;;;;;4903922;29;20232;-92
2021/05/15 02:39:40;;;;;;;1999.90;999.90;;;8.80;99.90;;;;;;4904578;29;20639;-92
2021/05/15 02:44:57;;;;;;;1999.90;999.90;;;8.80;99.90;;;;;;4920996;29;20196;-93
2021/05/15 02:47:23;;;;;;;1999.90;999.90;;;8.80;99.90;;;;;;4904335;29;20186;-93
2021/05/15 02:49:49;;;;;;;1999.90;999.90;;;8.90;99.90;;;;;;4903971;29;20222;-92
2021/05/15 02:52:21;;;;;;;1999.90;999.90;;;8.80;99.90;;;;;;4903822;29;20664;-93
2021/05/15 02:55:00;;;;;;;1999.90;999.90;;;8.80;99.90;;;;;;4903580;29;20186;-93
2021/05/15 02:57:34;;;;;;;1999.90;999.90;;;8.80;99.90;;;;;;4903269;29;20405;-92
2021/05/15 03:00:09;;;;;;;1999.90;999.90;;;8.80;99.90;;;;;;4903393;29;20182;-91
2021/05/15 03:02:35;;;;;;;1999.90;999.90;;;8.80;99.90;;;;;;4935052;29;20181;-92
2021/05/15 03:05:26;;;;;;;1999.90;999.90;;;8.80;99.90;;;;;;4903258;29;20188;-93
2021/05/15 03:08:13;;;;;;;1999.90;999.90;;;8.80;99.90;;;;;;4934843;29;20186;-92
2021/05/15 03:10:46;;;;;;;1999.90;999.90;;;8.80;99.90;;;;;;4919244;29;20213;-92
2021/05/15 03:13:14;;;;;;;1999.90;999.90;;;8.70;99.90;;;;;;4902923;29;20189;-91
2021/05/15 03:15:54;;;;;;;1999.90;999.90;;;8.70;99.90;;;;;;4902914;29;20530;-93
2021/05/15 03:18:20;;;;;;;1999.90;999.90;;;8.60;99.90;;;;;;4902811;29;20255;-91
2021/05/15 03:20:56;;;;;;;1999.90;999.90;;;8.60;99.90;;;;;;4903119;29;20213;-92
2021/05/15 03:23:25;;;;;;;1999.90;999.90;;;8.60;99.90;;;;;;4934310;29;20189;-92
2021/05/15 03:25:51;;;;;;;1999.90;999.90;;;8.60;99.90;;;;;;4902893;29;20301;-91
2021/05/15 03:28:22;;;;;;;1999.90;999.90;;;8.60;99.90;;;;;;4902997;29;20650;-93
2021/05/15 03:30:53;;;;;;;1999.90;999.90;;;8.60;99.90;;;;;;4902407;29;20210;-93
2021/05/15 03:33:19;;;;;;;1999.90;999.90;;;8.60;99.90;;;;;;4902596;29;20179;-91
2021/05/15 03:35:45;;;;;;;1999.90;999.90;;;8.70;99.90;;;;;;4902411;29;20193;-92
2021/05/15 03:38:38;;;;;;;1999.90;999.90;;;8.70;99.90;;;;;;4902348;29;20217;-93
2021/05/15 03:41:21;;;;;;;1999.90;999.90;;;8.60;99.90;;;;;;4918410;29;20189;-91
2021/05/15 03:43:55;;;;;;;1999.90;999.90;;;8.60;99.90;;;;;;4902383;29;20290;-91
2021/05/15 03:46:23;;;;;;;1999.90;999.90;;;8.60;99.90;;;;;;4902629;29;20638;-92
2021/05/15 03:48:51;;;;;;;1999.90;999.90;;;8.60;99.90;;;;;;4903217;29;20185;-92
2021/05/15 03:51:17;;;;;;;1999.90;999.90;;;8.60;99.90;;;;;;4902095;29;20708;-93
2021/05/15 03:53:48;;;;;;;1999.90;999.90;;;8.60;99.90;;;;;;4902182;29;20288;-92
2021/05/15 03:56:28;;;;;;;1999.90;999.90;;;8.60;99.90;;;;;;4902046;29;20634;-93
2021/05/15 03:58:57;;;;;;;1999.90;999.90;;;8.70;99.90;;;;;;4902195;29;20308;-92
2021/05/15 04:01:38;;;;;;;1999.90;999.90;;;8.60;99.90;;;;;;4902044;29;20182;-93
2021/05/15 04:04:07;;;;;;;1999.90;999.90;;;8.60;99.90;;;;;;4901830;29;20209;-93
2021/05/15 04:07:00;;;;;;;1999.90;999.90;;;8.60;99.90;;;;;;4902005;29;20317;-92
2021/05/15 04:09:26;;;;;;;1999.90;999.90;;;8.60;99.90;;;;;;4901509;29;20190;-91
2021/05/15 04:11:57;;;;;;;1999.90;999.90;;;8.70;99.90;;;;;;4901869;29;20186;-92
2021/05/15 04:14:44;;;;;;;1999.90;999.90;;;8.70;99.90;;;;;;4902459;29;20701;-92
2021/05/15 04:19:36;;;;;;;1999.90;999.90;;;8.50;99.90;;;;;;4920620;29;20174;-92
2021/05/15 04:22:02;;;;;;;1999.90;999.90;;;8.50;99.90;;;;;;4901887;29;20626;-91
2021/05/15 04:24:30;;;;;;;1999.90;999.90;;;8.40;99.90;;;;;;4933272;29;20194;-91
2021/05/15 04:27:05;;;;;;;1999.90;999.90;;;8.30;99.90;;;;;;4901668;29;20281;-93
2021/05/15 04:29:33;;;;;;;1999.90;999.90;;;8.30;99.90;;;;;;4902166;29;20629;-92
2021/05/15 04:32:05;;;;;;;1999.90;999.90;;;8.30;99.90;;;;;;4901664;29;20178;-91
2021/05/15 04:38:17;;;;;;;;;;;;;;;;;;;;;
2021/05/15 04:47:40;;;;;;;1999.90;999.90;;;8.40;99.90;;;;;;4905498;29;20642;-93
2021/05/15 04:50:13;;;;;;;1999.90;999.90;;;8.50;99.90;;;;;;4901298;29;20190;-91
2021/05/15 04:52:54;;;;;;;1999.90;999.90;;;8.50;99.90;;;;;;4901442;29;20226;-92
2021/05/15 04:59:05;;;;;;;1999.90;999.90;;;8.60;99.90;;;;;;4888465;29;20225;-91
2021/05/15 05:05:43;;;;;;;1999.90;999.90;;;8.80;99.90;;;;;;4805382;29;20197;-93
2021/05/15 05:08:14;;;;;;;1999.90;999.90;;;9.00;99.90;;;;;;4807031;29;20190;-89
2021/05/15 05:10:49;;;;;;;1999.90;999.90;;;9.10;99.90;;;;;;4898597;29;20192;-91
2021/05/15 05:13:15;;;;;;;1999.90;999.90;;;9.20;99.90;;;;;;4900902;29;20299;-89
2021/05/15 05:16:06;;;;;;;1999.90;999.90;;;9.30;99.90;;;;;;4900544;29;20190;-93
2021/05/15 05:18:32;;;;;;;1999.90;999.90;;;9.30;99.90;;;;;;4900644;29;20594;-92
2021/05/15 05:21:02;;;;;;;1999.90;999.90;;;9.30;99.90;;;;;;4901020;29;20190;-92
2021/05/15 05:23:28;;;;;;;1999.90;999.90;;;9.40;99.90;;;;;;4904783;29;20182;-89
2021/05/15 05:25:56;;;;;;;1999.90;999.90;;;9.40;99.90;;;;;;4921048;29;20312;-90
2021/05/15 05:28:31;;;;;;;1999.90;999.90;;;9.60;99.90;;;;;;4903963;29;20281;-90
2021/05/15 05:30:57;;;;;;;1999.90;999.90;;;9.70;99.90;;;;;;4904484;29;20185;-90
2021/05/15 05:33:23;;;;;;;1999.90;999.90;;;10.00;99.90;;;;;;4904563;29;20210;-90
2021/05/15 05:35:56;;;;;;;1999.90;999.90;;;10.10;99.90;;;;;;4903932;29;20189;-89
2021/05/15 05:38:22;;;;;;;1999.90;999.90;;;10.20;99.90;;;;;;4904197;29;20256;-90
2021/05/15 05:40:48;;;;;;;1999.90;999.90;;;10.10;99.90;;;;;;4903722;29;20671;-87
2021/05/15 05:43:13;;;;;;;1999.90;999.90;;;10.20;99.90;;;;;;4903700;29;20311;-88
2021/05/15 05:45:39;;;;;;;1999.90;999.90;;;10.20;99.90;;;;;;4920951;29;20537;-88
2021/05/15 05:48:05;;;;;;;1999.90;999.90;;;10.10;99.90;;;;;;4920471;29;20178;-88
2021/05/15 05:50:31;;;;;;;1999.90;999.90;;;10.10;99.90;;;;;;4903268;29;20603;-87
2021/05/15 05:52:58;;;;;;;1999.90;999.90;;;10.10;99.90;;;;;;4920204;29;20201;-87
2021/05/15 05:55:23;;;;;;;1999.90;999.90;;;10.10;99.90;;;;;;4903369;29;20197;-86
2021/05/15 05:57:52;;;;;;;1999.90;999.90;;;10.10;99.90;;;;;;4920378;29;20221;-91
2021/05/15 06:00:23;;;;;;;1999.90;999.90;;;10.20;99.90;;;;;;4904421;29;20178;-92
2021/05/15 06:02:49;;;;;;;1999.90;999.90;;;10.20;99.90;;;;;;4904150;29;20543;-92
2021/05/15 06:05:17;;;;;;;1999.90;999.90;;;10.30;99.90;;;;;;4906414;29;20218;-92
2021/05/15 06:07:43;;;;;;;1999.90;999.90;;;10.30;99.90;;;;;;4909185;29;20253;-90
2021/05/15 06:10:14;;;;;;;1999.90;999.90;;;10.30;99.90;;;;;;4920939;29;20193;-92
2021/05/15 06:13:10;;;;;;;1999.90;999.90;;;10.40;99.90;;;;;;4918155;29;20193;-93
2021/05/15 06:15:51;;;;;;;1999.90;999.90;;;10.50;99.90;;;;;;4904038;29;20194;-93
2021/05/15 06:18:22;;;;;;;1999.90;999.90;;;10.50;99.90;;;;;;4927599;29;20595;-92
2021/05/15 06:20:56;;;;;;;1999.90;999.90;;;10.40;99.90;;;;;;4922446;29;20196;-94
2021/05/15 06:23:25;;;;;;;1999.90;999.90;;;10.30;99.90;;;;;;4922783;29;20193;-91
2021/05/15 06:25:53;;;;;;;1999.90;999.90;;;10.40;99.90;;;;;;4939205;29;20220;-92
2021/05/15 06:28:28;;;;;;;1999.90;999.90;;;10.30;99.90;;;;;;4923158;29;20618;-93
2021/05/15 06:31:02;;;;;;;1999.90;999.90;;;10.30;99.90;;;;;;4919192;29;20196;-92
2021/05/15 06:33:33;;;;;;;1999.90;999.90;;;10.40;99.90;;;;;;4903327;29;20209;-92
2021/05/15 06:35:59;;;;;;;1999.90;999.90;;;10.40;99.90;;;;;;4917463;29;20185;-92
2021/05/15 06:38:25;;;;;;;1999.90;999.90;;;10.40;99.90;;;;;;4937926;29;20244;-89
2021/05/15 06:40:57;;;;;;;1999.90;999.90;;;10.40;99.90;;;;;;4922510;29;20193;-94
2021/05/15 06:43:22;;;;;;;1999.90;999.90;;;10.50;99.90;;;;;;4922120;29;20189;-90
2021/05/15 06:45:48;;;;;;;1999.90;999.90;;;10.60;99.90;;;;;;4922097;29;20183;-91
2021/05/15 06:48:14;;;;;;;1999.90;999.90;;;10.80;99.90;;;;;;4921726;29;20188;-92
2021/05/15 06:50:40;;;;;;;1999.90;999.90;;;11.30;99.90;;;;;;4922468;29;20197;-90
2021/05/15 06:53:06;;;;;;;1999.90;999.90;;;11.50;99.90;;;;;;4922586;29;20341;-92
2021/05/15 06:55:32;;;;;;;1999.90;999.90;;;11.70;99.90;;;;;;4921523;29;20272;-89
2021/05/15 06:57:57;;;;;;;1999.90;999.90;;;11.60;99.90;;;;;;4936905;29;20261;-90
2021/05/15 07:00:23;;;;;;;1999.90;999.90;;;11.40;99.90;;;;;;4921062;29;20177;-91
2021/05/15 07:02:58;;;;;;;1999.90;999.90;;;11.80;99.90;;;;;;4922334;29;20181;-94
2021/05/15 07:05:25;;;;;;;1999.90;999.90;;;11.80;99.90;;;;;;4920711;29;20557;-88
2021/05/15 07:07:50;;;;;;;1999.90;999.90;;;11.70;99.90;;;;;;4902750;29;20185;-89
2021/05/15 07:10:16;;;;;;;1999.90;999.90;;;11.50;99.90;;;;;;4902306;29;20249;-90
2021/05/15 07:12:42;;;;;;;1999.90;999.90;;;11.50;99.90;;;;;;4902465;29;20186;-89
2021/05/15 07:15:21;;;;;;;;;;;;;;;;;;;;;
2021/05/15 07:17:50;;;;;;;1999.90;999.90;;;11.40;99.90;;;;;;4919241;29;20190;-90
2021/05/15 07:20:16;;;;;;;1999.90;999.90;;;11.30;99.90;;;;;;4918883;29;20182;-90
2021/05/15 07:22:42;;;;;;;1999.90;999.90;;;11.10;99.90;;;;;;4902063;29;20178;-86
2021/05/15 07:25:12;;;;;;;1999.90;999.90;;;11.00;99.90;;;;;;4901674;29;20178;-88
2021/05/15 07:27:39;;;;;;;1999.90;999.90;;;10.90;99.90;;;;;;4920298;29;20629;-89
2021/05/15 07:30:06;;;;;;;1999.90;999.90;;;10.80;99.90;;;;;;4921233;29;20178;-90
2021/05/15 07:32:35;;;;;;;1999.90;999.90;;;10.90;99.90;;;;;;4936552;28;20185;-90
2021/05/15 07:35:01;;;;;;;1999.90;999.90;;;10.90;99.90;;;;;;4920538;29;20189;-89
2021/05/15 07:37:27;;;;;;;1999.90;999.90;;;11.00;99.90;;;;;;4920741;29;20237;-89
2021/05/15 07:39:53;;;;;;;1999.90;999.90;;;10.90;99.90;;;;;;4920098;29;20189;-89
2021/05/15 07:42:21;;;;;;;1999.90;999.90;;;11.00;99.90;;;;;;4936040;28;20177;-89
2021/05/15 07:44:47;;;;;;;1999.90;999.90;;;11.20;99.90;;;;;;4919725;29;20189;-90
2021/05/15 07:47:13;;;;;;;1999.90;999.90;;;11.20;99.90;;;;;;4937309;29;20185;-89
2021/05/15 07:49:38;;;;;;;1999.90;999.90;;;11.30;99.90;;;;;;4920712;29;20399;-90
2021/05/15 07:52:04;;;;;;;1999.90;999.90;;;11.20;99.90;;;;;;4920742;29;20192;-89
2021/05/15 07:54:30;;;;;;;1999.90;999.90;;;11.30;99.90;;;;;;4936568;28;20184;-90
2021/05/15 07:56:56;;;;;;;1999.90;999.90;;;11.20;99.90;;;;;;4920171;29;20181;-90
2021/05/15 07:59:25;;;;;;;1999.90;999.90;;;11.10;99.90;;;;;;4924628;29;20744;-89
2021/05/15 08:01:50;;;;;;;1999.90;999.90;;;11.00;99.90;;;;;;4920709;29;20174;-90
2021/05/15 08:04:16;;;;;;;1999.90;999.90;;;10.90;99.90;;;;;;4920422;29;20615;-90
2021/05/15 08:06:42;;;;;;;1999.90;999.90;;;11.00;99.90;;;;;;4920263;29;20183;-89
2021/05/15 08:09:08;;;;;;;1999.90;999.90;;;11.10;99.90;;;;;;4921759;29;20185;-88
2021/05/15 08:11:35;;;;;;;1999.90;999.90;;;11.00;99.90;;;;;;4936211;29;20240;-90
2021/05/15 08:14:04;;;;;;;1999.90;999.90;;;10.90;99.90;;;;;;4936984;29;20255;-88
2021/05/15 08:16:31;;;;;;;1999.90;999.90;;;10.90;99.90;;;;;;4935851;28;20185;-89
2021/05/15 08:18:57;;;;;;;1999.90;999.90;;;10.90;99.90;;;;;;4935978;28;20280;-91
2021/05/15 08:21:25;;;;;;;1999.90;999.90;;;10.90;99.90;;;;;;4920245;29;20177;-89
2021/05/15 08:23:50;;;;;;;1999.90;999.90;;;10.80;99.90;;;;;;4919735;29;20189;-89
2021/05/15 08:26:16;;;;;;;1999.90;999.90;;;10.90;99.90;;;;;;4919842;29;20200;-89
2021/05/15 08:28:46;;;;;;;1999.90;999.90;;;11.00;99.90;;;;;;4919806;29;20181;-89
2021/05/15 08:31:12;;;;;;;1999.90;999.90;;;11.00;99.90;;;;;;4920474;29;20196;-90
2021/05/15 08:33:38;;;;;;;1999.90;999.90;;;11.00;99.90;;;;;;4936245;29;20181;-89
2021/05/15 08:36:05;;;;;;;1999.90;999.90;;;11.00;99.90;;;;;;4936121;28;20301;-89
2021/05/15 08:38:32;;;;;;;1999.90;999.90;;;11.00;99.90;;;;;;4935812;28;20312;-90
2021/05/15 08:40:58;;;;;;;1999.90;999.90;;;11.10;99.90;;;;;;4935818;28;20186;-89
2021/05/15 08:43:29;;;;;;;1999.90;999.90;;;11.20;99.90;;;;;;4935383;29;20204;-89
2021/05/15 08:46:02;;;;;;;1999.90;999.90;;;11.30;99.90;;;;;;4936931;29;20181;-93
2021/05/15 08:48:31;;;;;;;1999.90;999.90;;;11.30;99.90;;;;;;4919987;29;20683;-87
2021/05/15 08:51:00;;;;;;;1999.90;999.90;;;11.30;99.90;;;;;;4936444;29;20181;-88
2021/05/15 08:53:26;;;;;;;1999.90;999.90;;;11.30;99.90;;;;;;4935075;28;20185;-88
2021/05/15 08:55:52;;;;;;;1999.90;999.90;;;11.30;99.90;;;;;;4918794;29;20652;-87
2021/05/15 08:58:20;;;;;;;1999.90;999.90;;;11.50;99.90;;;;;;4935084;28;20268;-87
2021/05/15 09:00:48;;;;;;;1999.90;999.90;;;11.60;99.90;;;;;;4935232;28;20189;-88
2021/05/15 09:03:15;;;;;;;1999.90;999.90;;;11.70;99.90;;;;;;4934855;28;20212;-87
2021/05/15 09:05:44;;;;;;;1999.90;999.90;;;11.80;99.90;;;;;;4935952;29;20545;-87
2021/05/15 09:08:11;;;;;;;1999.90;999.90;;;11.70;99.90;;;;;;4935606;28;20189;-87
2021/05/15 09:10:42;;;;;;;1999.90;999.90;;;11.90;99.90;;;;;;4934945;28;20692;-87
2021/05/15 09:13:28;;;;;;;1999.90;999.90;;;11.80;99.90;;;;;;4934992;29;20645;-86
2021/05/15 09:16:03;;;;;;;1999.90;999.90;;;11.90;99.90;;;;;;4936414;29;20620;-87
2021/05/15 09:18:35;;;;;;;1999.90;999.90;;;12.20;99.90;;;;;;4918991;29;20213;-87
2021/05/15 09:21:03;;;;;;;1999.90;999.90;;;12.40;99.90;;;;;;4935311;28;20540;-87
2021/05/15 09:23:34;;;;;;;1999.90;999.90;;;12.70;99.90;;;;;;4934691;28;20237;-87
2021/05/15 09:26:15;;;;;;;1999.90;999.90;;;12.80;99.90;;;;;;4928075;29;20205;-88
2021/05/15 09:28:46;;;;;;;1999.90;999.90;;;13.00;99.90;;;;;;4921875;29;20213;-89
2021/05/15 09:31:32;;;;;;;1999.90;999.90;;;13.30;99.90;;;;;;4915684;29;20608;-91
2021/05/15 09:34:09;;;;;;;1999.90;999.90;;;13.50;99.90;;;;;;4919976;29;20186;-91
2021/05/15 09:36:59;;;;;;;;;;;;;;;;;;;;;
2021/05/15 09:39:32;;;;;;;1999.90;999.90;;;13.70;99.90;;;;;;4938925;29;20215;-91
2021/05/15 09:42:02;;;;;;;1999.90;999.90;;;13.90;99.90;;;;;;4919952;29;20186;-93
2021/05/15 09:44:40;;;;;;;1999.90;999.90;;;13.50;99.90;;;;;;4916745;29;20283;-91
2021/05/15 09:47:08;;;;;;;1999.90;999.90;;;13.10;99.90;;;;;;4915604;29;20201;-91
2021/05/15 09:49:37;;;;;;;1999.90;999.90;;;12.60;99.90;;;;;;4919520;29;20189;-91
2021/05/15 09:52:07;;;;;;;1999.90;999.90;;;12.40;99.90;;;;;;4919513;29;20231;-92
2021/05/15 09:54:39;;;;;;;1999.90;999.90;;;12.40;99.90;;;;;;4919365;29;20173;-92
2021/05/15 09:57:13;;;;;;;1999.90;999.90;;;12.70;99.90;;;;;;4919546;29;20189;-92
2021/05/15 09:59:41;;;;;;;1999.90;999.90;;;12.80;99.90;;;;;;4919645;29;20209;-90
2021/05/15 10:02:12;;;;;;;1999.90;999.90;;;13.30;99.90;;;;;;4919400;29;20189;-91
2021/05/15 10:04:49;;;;;;;1999.90;999.90;;;13.70;99.90;;;;;;4919316;29;20174;-91
2021/05/15 10:07:17;;;;;;;1999.90;999.90;;;13.50;99.90;;;;;;4919910;29;20189;-92
2021/05/15 10:09:50;;;;;;;1999.90;999.90;;;13.50;99.90;;;;;;4923340;29;20182;-91
2021/05/15 10:12:16;;;;;;;1999.90;999.90;;;13.40;99.90;;;;;;4923387;29;20629;-91
2021/05/15 10:14:42;;;;;;;1999.90;999.90;;;13.50;99.90;;;;;;4922688;29;20250;-92
2021/05/15 10:17:10;;;;;;;1999.90;999.90;;;13.60;99.90;;;;;;4922739;29;20192;-91
2021/05/15 10:19:36;;;;;;;1999.90;999.90;;;13.80;99.90;;;;;;4922264;29;20174;-90
2021/05/15 10:22:04;;;;;;;1999.90;999.90;;;13.90;99.90;;;;;;4922235;29;20186;-90
2021/05/15 10:24:34;;;;;;;1999.90;999.90;;;13.90;99.90;;;;;;4919079;29;20201;-91
2021/05/15 10:27:32;;;;;;;1999.90;999.90;;;13.90;99.90;;;;;;4902596;29;20662;-92
2021/05/15 10:29:58;;;;;;;1999.90;999.90;;;14.10;99.90;;;;;;4903644;29;20178;-90
2021/05/15 10:32:36;;;;;;;1999.90;999.90;;;14.10;99.90;;;;;;4917788;29;20240;-91
2021/05/15 10:35:06;;;;;;;1999.90;999.90;;;14.00;99.90;;;;;;4919129;29;20229;-91
2021/05/15 10:37:50;;;;;;;1999.90;999.90;;;14.00;99.90;;;;;;4922871;29;20221;-91
2021/05/15 10:40:28;;;;;;;1999.90;999.90;;;13.90;99.90;;;;;;4903210;29;20178;-91
2021/05/15 10:43:02;;;;;;;1999.90;999.90;;;13.40;99.90;;;;;;4903055;29;20697;-89
2021/05/15 10:45:42;;;;;;;1999.90;999.90;;;13.20;99.90;;;;;;4903324;29;20186;-91
2021/05/15 10:48:25;;;;;;;1999.90;999.90;;;13.00;99.90;;;;;;4903016;29;20205;-90
2021/05/15 10:51:08;;;;;;;1999.90;999.90;;;12.80;99.90;;;;;;4903105;29;20178;-89
2021/05/15 10:53:34;;;;;;;1999.90;999.90;;;12.50;99.90;;;;;;4902924;29;20311;-90
2021/05/15 10:56:13;;;;;;;1999.90;999.90;;;12.30;99.90;;;;;;4902927;29;20197;-88
2021/05/15 10:58:51;;;;;;;1999.90;999.90;;;12.50;99.90;;;;;;4919807;29;20681;-89
2021/05/15 11:01:25;;;;;;;1999.90;999.90;;;12.80;99.90;;;;;;4902794;29;20190;-90
2021/05/15 11:03:51;;;;;;;1999.90;999.90;;;13.00;99.90;;;;;;4902752;29;20208;-89
2021/05/15 11:06:16;;;;;;;1999.90;999.90;;;13.10;99.90;;;;;;4902368;29;20391;-89
2021/05/15 11:08:43;;;;;;;1999.90;999.90;;;12.90;99.90;;;;;;4918392;29;20194;-89
2021/05/15 11:11:15;;;;;;;1999.90;999.90;;;12.70;99.90;;;;;;4919180;29;20197;-90
2021/05/15 11:20:54;;;;;;;1999.90;999.90;;;12.40;99.90;;;;;;4891892;29;20269;-95
2021/05/15 11:33:39;;;;;;;1999.90;999.90;;;13.60;99.90;;;;;;4917990;29;20206;-90
2021/05/15 11:36:07;;;;;;;1999.90;999.90;;;14.10;99.90;;;;;;4934107;29;20194;-91
2021/05/15 11:39:02;;;;;;;1999.90;999.90;;;14.20;99.90;;;;;;4933148;29;20709;-91
2021/05/15 11:41:36;;;;;;;1999.90;999.90;;;14.40;99.90;;;;;;4933745;29;20181;-90
2021/05/15 11:44:03;;;;;;;1999.90;999.90;;;14.20;99.90;;;;;;4933471;29;20712;-92
2021/05/15 11:46:54;;;;;;;1999.90;999.90;;;14.30;99.90;;;;;;4933499;29;20245;-91
2021/05/15 11:49:28;;;;;;;1999.90;999.90;;;14.30;99.90;;;;;;4934105;29;20182;-91
2021/05/15 11:52:04;;;;;;;1999.90;999.90;;;14.10;99.90;;;;;;4918799;29;20272;-91
2021/05/15 11:54:31;;;;;;;1999.90;999.90;;;14.10;99.90;;;;;;4919314;29;20213;-92
2021/05/15 11:56:57;;;;;;;1999.90;999.90;;;14.10;99.90;;;;;;4933741;29;20189;-92
2021/05/15 11:59:33;;;;;;;1999.90;999.90;;;14.10;99.90;;;;;;4933426;29;20228;-91
2021/05/15 12:01:59;;;;;;;1999.90;999.90;;;14.00;99.90;;;;;;4933359;29;20192;-92
2021/05/15 12:05:09;;;;;;;1999.90;999.90;;;14.00;99.90;;;;;;4933551;29;20186;-94
2021/05/15 12:08:27;;;;;;;;;;;;;;;;;;;;;
2021/05/15 12:11:17;;;;;;;1999.90;999.90;;;13.30;99.90;;;;;;4915236;29;20570;-93
2021/05/15 12:13:51;;;;;;;1999.90;999.90;;;13.30;99.90;;;;;;4922193;29;20285;-89
2021/05/15 12:16:20;;;;;;;1999.90;999.90;;;13.30;99.90;;;;;;4933274;29;20229;-90
2021/05/15 12:18:46;;;;;;;1999.90;999.90;;;13.20;99.90;;;;;;4932477;29;20245;-91
2021/05/15 12:21:22;;;;;;;1999.90;999.90;;;12.90;99.90;;;;;;4917315;29;20190;-89
2021/05/15 12:23:49;;;;;;;1999.90;999.90;;;12.90;99.90;;;;;;4917466;29;20300;-89
2021/05/15 12:26:17;;;;;;;1999.90;999.90;;;12.90;99.90;;;;;;4916778;29;20186;-91
2021/05/15 12:29:23;;;;;;;1999.90;999.90;;;13.10;99.90;;;;;;4917462;29;20194;-90
2021/05/15 12:32:29;;;;;;;1999.90;999.90;;;13.20;99.90;;;;;;4932886;29;20201;-91
2021/05/15 12:35:06;;;;;;;1999.90;999.90;;;13.20;99.90;;;;;;4917279;29;20186;-89
2021/05/15 12:41:10;;;;;;;1999.90;999.90;;;13.10;99.90;;;;;;4887291;29;20185;-90
2021/05/15 12:43:41;;;;;;;1999.90;999.90;;;13.00;99.90;;;;;;4916837;29;20217;-91
2021/05/15 12:46:14;;;;;;;1999.90;999.90;;;13.00;99.90;;;;;;4916797;29;20197;-90
2021/05/15 12:48:54;;;;;;;1999.90;999.90;;;12.80;99.90;;;;;;4917455;29;20178;-89
2021/05/15 12:51:28;;;;;;;1999.90;999.90;;;12.90;99.90;;;;;;4916828;29;20249;-88
2021/05/15 12:53:53;;;;;;;1999.90;999.90;;;13.00;99.90;;;;;;4915961;29;20665;-87
2021/05/15 12:56:33;;;;;;;1999.90;999.90;;;12.90;99.90;;;;;;4931746;29;20219;-88
2021/05/15 12:58:59;;;;;;;1999.90;999.90;;;12.50;99.90;;;;;;4916175;29;20703;-87
2021/05/15 13:01:25;;;;;;;1999.90;999.90;;;12.30;99.90;;;;;;4915837;29;20206;-88
2021/05/15 13:03:52;;;;;;;1999.90;999.90;;;12.30;99.90;;;;;;4916102;29;20178;-89
2021/05/15 13:06:23;;;;;;;1999.90;999.90;;;12.30;99.90;;;;;;4915874;29;20277;-88
2021/05/15 13:08:59;;;;;;;1999.90;999.90;;;12.20;99.90;;;;;;4916208;29;20186;-89
2021/05/15 13:11:26;;;;;;;1999.90;999.90;;;12.20;99.90;;;;;;4917159;29;20200;-89
2021/05/15 13:13:53;;;;;;;1999.90;999.90;;;12.20;99.90;;;;;;4918183;29;20221;-90
2021/05/15 13:16:20;;;;;;;1999.90;999.90;;;12.20;99.90;;;;;;4916255;29;20676;-90
2021/05/15 13:18:46;;;;;;;1999.90;999.90;;;12.10;99.90;;;;;;4916317;29;20677;-89